sensor_id;sensor_type;location;lat;lon;timestamp;temperature;humidity
12632;DHT22;6381;45.748;12.106;2023-05-10T00:02:09;16.90;90.20
12632;DHT22;6381;45.748;12.106;2023-05-10T00:04:39;16.80;90.10
12632;DHT22;6381;45.748;12.106;2023-05-10T00:07:09;16.90;90.00
12632;DHT22;6381;45.748;12.106;2023-05-10T00:09:39;17.00;89.00
12632;DHT22;6381;45.748;12.106;2023-05-10T00:12:09;16.90;89.10
12632;DHT22;6381;45.748;12.106;2023-05-10T00:14:40;16.90;89.80
12632;DHT22;6381;45.748;12.106;2023-05-10T00:17:10;16.90;90.10
12632;DHT22;6381;45.748;12.106;2023-05-10T00:19:39;16.80;90.30
12632;DHT22;6381;45.748;12.106;2023-05-10T00:22:09;16.80;90.10
12632;DHT22;6381;45.748;12.106;2023-05-10T00:24:39;16.60;89.30
12632;DHT22;6381;45.748;12.106;2023-05-10T00:27:09;16.70;90.20
12632;DHT22;6381;45.748;12.106;2023-05-10T00:29:40;16.70;90.40
12632;DHT22;6381;45.748;12.106;2023-05-10T00:32:10;16.70;90.70
12632;DHT22;6381;45.748;12.106;2023-05-10T00:34:43;16.80;91.40
12632;DHT22;6381;45.748;12.106;2023-05-10T00:37:13;16.70;91.30
12632;DHT22;6381;45.748;12.106;2023-05-10T00:39:42;16.60;91.00
12632;DHT22;6381;45.748;12.106;2023-05-10T00:42:12;16.70;91.10
12632;DHT22;6381;45.748;12.106;2023-05-10T00:44:44;16.70;90.60
12632;DHT22;6381;45.748;12.106;2023-05-10T00:47:14;16.60;90.30
12632;DHT22;6381;45.748;12.106;2023-05-10T00:49:46;16.50;89.60
12632;DHT22;6381;45.748;12.106;2023-05-10T00:52:16;16.60;89.80
12632;DHT22;6381;45.748;12.106;2023-05-10T00:54:47;16.70;89.30
12632;DHT22;6381;45.748;12.106;2023-05-10T00:57:17;16.60;89.40
12632;DHT22;6381;45.748;12.106;2023-05-10T00:59:49;16.70;89.50
12632;DHT22;6381;45.748;12.106;2023-05-10T01:02:18;16.50;88.90
12632;DHT22;6381;45.748;12.106;2023-05-10T01:04:49;16.40;89.30
12632;DHT22;6381;45.748;12.106;2023-05-10T01:07:19;16.50;89.50
12632;DHT22;6381;45.748;12.106;2023-05-10T01:09:49;16.50;89.30
12632;DHT22;6381;45.748;12.106;2023-05-10T01:12:19;16.50;89.30
12632;DHT22;6381;45.748;12.106;2023-05-10T01:14:51;16.60;88.50
12632;DHT22;6381;45.748;12.106;2023-05-10T01:17:22;16.60;88.40
12632;DHT22;6381;45.748;12.106;2023-05-10T01:19:52;16.60;88.70
12632;DHT22;6381;45.748;12.106;2023-05-10T01:22:50;16.70;88.90
12632;DHT22;6381;45.748;12.106;2023-05-10T01:25:47;16.50;88.80
12632;DHT22;6381;45.748;12.106;2023-05-10T01:32:00;16.60;88.90
12632;DHT22;6381;45.748;12.106;2023-05-10T01:34:38;16.60;90.00
12632;DHT22;6381;45.748;12.106;2023-05-10T01:37:15;16.50;90.80
12632;DHT22;6381;45.748;12.106;2023-05-10T01:39:52;16.50;91.90
12632;DHT22;6381;45.748;12.106;2023-05-10T01:42:26;16.40;92.30
12632;DHT22;6381;45.748;12.106;2023-05-10T01:45:05;16.40;92.50
12632;DHT22;6381;45.748;12.106;2023-05-10T01:47:41;16.30;92.50
12632;DHT22;6381;45.748;12.106;2023-05-10T01:50:17;16.40;93.20
12632;DHT22;6381;45.748;12.106;2023-05-10T01:52:51;16.40;93.50
12632;DHT22;6381;45.748;12.106;2023-05-10T01:55:25;16.30;93.90
12632;DHT22;6381;45.748;12.106;2023-05-10T01:58:04;16.20;92.80
12632;DHT22;6381;45.748;12.106;2023-05-10T02:00:37;16.00;93.00
12632;DHT22;6381;45.748;12.106;2023-05-10T02:03:12;16.10;93.40
12632;DHT22;6381;45.748;12.106;2023-05-10T02:05:43;16.10;93.30
12632;DHT22;6381;45.748;12.106;2023-05-10T02:08:17;16.00;93.60
12632;DHT22;6381;45.748;12.106;2023-05-10T02:10:50;16.10;93.70
12632;DHT22;6381;45.748;12.106;2023-05-10T02:13:21;15.90;93.30
12632;DHT22;6381;45.748;12.106;2023-05-10T02:15:53;15.90;94.00
12632;DHT22;6381;45.748;12.106;2023-05-10T02:18:26;15.90;93.70
12632;DHT22;6381;45.748;12.106;2023-05-10T02:20:58;16.00;94.90
12632;DHT22;6381;45.748;12.106;2023-05-10T02:23:29;16.00;93.80
12632;DHT22;6381;45.748;12.106;2023-05-10T02:26:00;15.70;93.80
12632;DHT22;6381;45.748;12.106;2023-05-10T02:28:32;15.90;94.20
12632;DHT22;6381;45.748;12.106;2023-05-10T02:31:03;15.70;94.30
12632;DHT22;6381;45.748;12.106;2023-05-10T02:33:38;15.80;95.30
12632;DHT22;6381;45.748;12.106;2023-05-10T02:36:10;15.60;95.30
12632;DHT22;6381;45.748;12.106;2023-05-10T02:38:40;15.80;96.40
12632;DHT22;6381;45.748;12.106;2023-05-10T02:41:11;15.70;96.20
12632;DHT22;6381;45.748;12.106;2023-05-10T02:43:42;15.60;96.30
12632;DHT22;6381;45.748;12.106;2023-05-10T02:46:12;15.60;96.90
12632;DHT22;6381;45.748;12.106;2023-05-10T02:48:44;15.80;97.50
12632;DHT22;6381;45.748;12.106;2023-05-10T02:51:16;15.70;96.30
12632;DHT22;6381;45.748;12.106;2023-05-10T02:53:47;15.70;97.60
12632;DHT22;6381;45.748;12.106;2023-05-10T02:56:23;15.60;97.40
12632;DHT22;6381;45.748;12.106;2023-05-10T02:58:54;15.70;97.60
12632;DHT22;6381;45.748;12.106;2023-05-10T03:01:26;15.50;98.90
12632;DHT22;6381;45.748;12.106;2023-05-10T03:03:59;15.60;98.10
12632;DHT22;6381;45.748;12.106;2023-05-10T03:06:29;15.60;98.50
12632;DHT22;6381;45.748;12.106;2023-05-10T03:09:01;15.60;98.20
12632;DHT22;6381;45.748;12.106;2023-05-10T03:11:39;15.60;97.20
12632;DHT22;6381;45.748;12.106;2023-05-10T03:14:25;15.60;97.70
12632;DHT22;6381;45.748;12.106;2023-05-10T03:17:04;15.50;98.10
12632;DHT22;6381;45.748;12.106;2023-05-10T03:19:43;15.50;97.60
12632;DHT22;6381;45.748;12.106;2023-05-10T03:22:20;15.30;97.30
12632;DHT22;6381;45.748;12.106;2023-05-10T03:24:53;15.30;98.30
12632;DHT22;6381;45.748;12.106;2023-05-10T03:27:26;15.10;97.30
12632;DHT22;6381;45.748;12.106;2023-05-10T03:29:57;15.30;99.30
12632;DHT22;6381;45.748;12.106;2023-05-10T03:32:29;15.10;98.10
12632;DHT22;6381;45.748;12.106;2023-05-10T03:35:06;15.10;99.20
12632;DHT22;6381;45.748;12.106;2023-05-10T03:37:37;15.20;99.00
12632;DHT22;6381;45.748;12.106;2023-05-10T03:40:08;15.10;98.80
12632;DHT22;6381;45.748;12.106;2023-05-10T03:42:40;14.90;99.40
12632;DHT22;6381;45.748;12.106;2023-05-10T03:45:11;15.00;99.90
12632;DHT22;6381;45.748;12.106;2023-05-10T03:47:41;15.10;99.70
12632;DHT22;6381;45.748;12.106;2023-05-10T03:50:13;15.10;99.70
12632;DHT22;6381;45.748;12.106;2023-05-10T03:52:44;15.10;99.90
12632;DHT22;6381;45.748;12.106;2023-05-10T03:55:14;15.10;99.90
12632;DHT22;6381;45.748;12.106;2023-05-10T03:57:45;15.00;99.90
12632;DHT22;6381;45.748;12.106;2023-05-10T04:00:18;14.90;99.50
12632;DHT22;6381;45.748;12.106;2023-05-10T04:02:51;15.00;99.00
12632;DHT22;6381;45.748;12.106;2023-05-10T04:05:25;14.90;99.70
12632;DHT22;6381;45.748;12.106;2023-05-10T04:07:55;15.20;99.40
12632;DHT22;6381;45.748;12.106;2023-05-10T04:10:25;15.10;99.50
12632;DHT22;6381;45.748;12.106;2023-05-10T04:12:54;15.10;99.00
12632;DHT22;6381;45.748;12.106;2023-05-10T04:15:24;15.20;99.00
12632;DHT22;6381;45.748;12.106;2023-05-10T04:17:54;15.00;99.00
12632;DHT22;6381;45.748;12.106;2023-05-10T04:20:25;15.10;99.20
12632;DHT22;6381;45.748;12.106;2023-05-10T04:22:55;15.20;99.30
12632;DHT22;6381;45.748;12.106;2023-05-10T04:25:27;15.20;99.30
12632;DHT22;6381;45.748;12.106;2023-05-10T04:27:57;15.20;99.90
12632;DHT22;6381;45.748;12.106;2023-05-10T04:30:27;15.10;99.10
12632;DHT22;6381;45.748;12.106;2023-05-10T04:32:57;15.30;99.20
12632;DHT22;6381;45.748;12.106;2023-05-10T04:35:29;15.30;98.30
12632;DHT22;6381;45.748;12.106;2023-05-10T04:37:59;15.30;98.40
12632;DHT22;6381;45.748;12.106;2023-05-10T04:40:31;15.10;98.10
12632;DHT22;6381;45.748;12.106;2023-05-10T04:43:01;15.10;99.00
12632;DHT22;6381;45.748;12.106;2023-05-10T04:45:30;15.40;99.90
12632;DHT22;6381;45.748;12.106;2023-05-10T04:48:00;15.40;99.80
12632;DHT22;6381;45.748;12.106;2023-05-10T04:50:32;15.20;99.70
12632;DHT22;6381;45.748;12.106;2023-05-10T04:53:02;15.00;99.90
12632;DHT22;6381;45.748;12.106;2023-05-10T04:55:31;14.90;99.90
12632;DHT22;6381;45.748;12.106;2023-05-10T04:58:01;14.90;99.90
12632;DHT22;6381;45.748;12.106;2023-05-10T05:00:34;15.10;99.90
12632;DHT22;6381;45.748;12.106;2023-05-10T05:03:04;15.20;99.90
12632;DHT22;6381;45.748;12.106;2023-05-10T05:05:35;15.00;99.90
12632;DHT22;6381;45.748;12.106;2023-05-10T05:08:05;15.00;99.90
12632;DHT22;6381;45.748;12.106;2023-05-10T05:10:35;15.10;99.90
12632;DHT22;6381;45.748;12.106;2023-05-10T05:13:04;15.00;99.90
12632;DHT22;6381;45.748;12.106;2023-05-10T05:15:34;14.90;99.90
12632;DHT22;6381;45.748;12.106;2023-05-10T05:18:04;14.90;99.90
12632;DHT22;6381;45.748;12.106;2023-05-10T05:20:36;14.80;99.90
12632;DHT22;6381;45.748;12.106;2023-05-10T05:23:06;15.00;99.90
12632;DHT22;6381;45.748;12.106;2023-05-10T05:25:35;14.90;99.90
12632;DHT22;6381;45.748;12.106;2023-05-10T05:28:05;14.80;99.90
12632;DHT22;6381;45.748;12.106;2023-05-10T05:30:37;15.00;99.90
12632;DHT22;6381;45.748;12.106;2023-05-10T05:33:07;15.10;99.90
12632;DHT22;6381;45.748;12.106;2023-05-10T05:35:39;15.00;99.90
12632;DHT22;6381;45.748;12.106;2023-05-10T05:38:09;15.40;99.90
12632;DHT22;6381;45.748;12.106;2023-05-10T05:40:38;15.40;99.90
12632;DHT22;6381;45.748;12.106;2023-05-10T05:43:08;15.30;99.90
12632;DHT22;6381;45.748;12.106;2023-05-10T05:45:38;15.10;99.90
12632;DHT22;6381;45.748;12.106;2023-05-10T05:48:08;15.30;99.90
12632;DHT22;6381;45.748;12.106;2023-05-10T05:50:39;15.10;99.90
12632;DHT22;6381;45.748;12.106;2023-05-10T05:53:09;15.30;99.90
12632;DHT22;6381;45.748;12.106;2023-05-10T05:55:39;15.10;99.90
12632;DHT22;6381;45.748;12.106;2023-05-10T05:58:09;15.40;99.90
12632;DHT22;6381;45.748;12.106;2023-05-10T06:00:38;15.40;99.90
12632;DHT22;6381;45.748;12.106;2023-05-10T06:03:09;15.40;99.90
12632;DHT22;6381;45.748;12.106;2023-05-10T06:05:41;15.40;99.90
12632;DHT22;6381;45.748;12.106;2023-05-10T06:08:11;15.50;99.90
12632;DHT22;6381;45.748;12.106;2023-05-10T06:10:41;15.30;99.90
12632;DHT22;6381;45.748;12.106;2023-05-10T06:13:11;15.50;99.90
12632;DHT22;6381;45.748;12.106;2023-05-10T06:15:40;15.60;99.90
12632;DHT22;6381;45.748;12.106;2023-05-10T06:18:10;15.60;99.90
12632;DHT22;6381;45.748;12.106;2023-05-10T06:20:43;15.70;99.90
12632;DHT22;6381;45.748;12.106;2023-05-10T06:23:13;15.40;99.90
12632;DHT22;6381;45.748;12.106;2023-05-10T06:25:43;15.60;99.90
12632;DHT22;6381;45.748;12.106;2023-05-10T06:28:13;15.80;99.90
12632;DHT22;6381;45.748;12.106;2023-05-10T06:30:43;15.70;99.90
12632;DHT22;6381;45.748;12.106;2023-05-10T06:33:13;16.00;99.90
12632;DHT22;6381;45.748;12.106;2023-05-10T06:35:45;15.80;99.90
12632;DHT22;6381;45.748;12.106;2023-05-10T06:38:15;15.60;99.90
12632;DHT22;6381;45.748;12.106;2023-05-10T06:40:45;15.80;99.90
12632;DHT22;6381;45.748;12.106;2023-05-10T06:43:16;15.90;99.90
12632;DHT22;6381;45.748;12.106;2023-05-10T06:45:45;15.60;99.90
12632;DHT22;6381;45.748;12.106;2023-05-10T06:48:15;15.70;99.90
12632;DHT22;6381;45.748;12.106;2023-05-10T06:50:47;15.70;99.90
12632;DHT22;6381;45.748;12.106;2023-05-10T06:53:17;15.80;99.90
12632;DHT22;6381;45.748;12.106;2023-05-10T06:55:49;15.60;99.90
12632;DHT22;6381;45.748;12.106;2023-05-10T06:58:19;15.70;99.90
12632;DHT22;6381;45.748;12.106;2023-05-10T07:00:49;15.60;99.90
12632;DHT22;6381;45.748;12.106;2023-05-10T07:03:19;15.60;99.90
12632;DHT22;6381;45.748;12.106;2023-05-10T07:05:51;15.50;99.90
12632;DHT22;6381;45.748;12.106;2023-05-10T07:08:23;15.60;99.90
12632;DHT22;6381;45.748;12.106;2023-05-10T07:11:02;15.60;99.90
12632;DHT22;6381;45.748;12.106;2023-05-10T07:13:33;15.70;99.90
12632;DHT22;6381;45.748;12.106;2023-05-10T07:16:05;15.60;99.90
12632;DHT22;6381;45.748;12.106;2023-05-10T07:18:36;15.50;99.90
12632;DHT22;6381;45.748;12.106;2023-05-10T07:21:09;15.60;99.90
12632;DHT22;6381;45.748;12.106;2023-05-10T07:23:39;15.50;99.90
12632;DHT22;6381;45.748;12.106;2023-05-10T07:26:11;15.60;99.90
12632;DHT22;6381;45.748;12.106;2023-05-10T07:28:43;15.40;99.90
12632;DHT22;6381;45.748;12.106;2023-05-10T07:31:15;15.40;99.90
12632;DHT22;6381;45.748;12.106;2023-05-10T07:33:45;15.30;99.90
12632;DHT22;6381;45.748;12.106;2023-05-10T07:36:17;15.40;99.90
12632;DHT22;6381;45.748;12.106;2023-05-10T07:38:47;15.20;99.90
12632;DHT22;6381;45.748;12.106;2023-05-10T07:41:17;15.30;99.90
12632;DHT22;6381;45.748;12.106;2023-05-10T07:43:47;15.30;99.90
12632;DHT22;6381;45.748;12.106;2023-05-10T07:46:17;15.40;99.90
12632;DHT22;6381;45.748;12.106;2023-05-10T07:48:47;15.30;99.90
12632;DHT22;6381;45.748;12.106;2023-05-10T07:51:19;15.50;99.90
12632;DHT22;6381;45.748;12.106;2023-05-10T07:53:50;15.40;99.90
12632;DHT22;6381;45.748;12.106;2023-05-10T07:56:22;15.50;99.90
12632;DHT22;6381;45.748;12.106;2023-05-10T07:58:53;15.60;99.90
12632;DHT22;6381;45.748;12.106;2023-05-10T08:01:24;15.40;99.90
12632;DHT22;6381;45.748;12.106;2023-05-10T08:03:55;15.30;99.90
12632;DHT22;6381;45.748;12.106;2023-05-10T08:06:27;15.30;99.90
12632;DHT22;6381;45.748;12.106;2023-05-10T08:08:58;15.00;99.90
12632;DHT22;6381;45.748;12.106;2023-05-10T08:11:27;15.00;99.90
12632;DHT22;6381;45.748;12.106;2023-05-10T08:14:00;15.00;99.90
12632;DHT22;6381;45.748;12.106;2023-05-10T08:16:30;15.40;99.90
12632;DHT22;6381;45.748;12.106;2023-05-10T08:19:00;15.00;99.90
12632;DHT22;6381;45.748;12.106;2023-05-10T08:21:33;15.00;99.90
12632;DHT22;6381;45.748;12.106;2023-05-10T08:24:04;15.00;99.90
12632;DHT22;6381;45.748;12.106;2023-05-10T08:26:34;15.10;99.90
12632;DHT22;6381;45.748;12.106;2023-05-10T08:29:04;15.30;99.90
12632;DHT22;6381;45.748;12.106;2023-05-10T08:31:34;15.00;99.90
12632;DHT22;6381;45.748;12.106;2023-05-10T08:34:03;14.90;99.90
12632;DHT22;6381;45.748;12.106;2023-05-10T08:36:35;15.20;99.90
12632;DHT22;6381;45.748;12.106;2023-05-10T08:39:05;15.20;99.90
12632;DHT22;6381;45.748;12.106;2023-05-10T08:41:51;15.20;99.90
12632;DHT22;6381;45.748;12.106;2023-05-10T08:44:23;15.20;99.90
12632;DHT22;6381;45.748;12.106;2023-05-10T08:46:54;15.20;99.90
12632;DHT22;6381;45.748;12.106;2023-05-10T08:49:26;15.20;99.90
12632;DHT22;6381;45.748;12.106;2023-05-10T08:52:02;15.10;99.90
12632;DHT22;6381;45.748;12.106;2023-05-10T08:54:32;15.20;99.90
12632;DHT22;6381;45.748;12.106;2023-05-10T08:57:02;15.30;99.90
12632;DHT22;6381;45.748;12.106;2023-05-10T08:59:32;15.10;99.90
12632;DHT22;6381;45.748;12.106;2023-05-10T09:02:04;14.90;99.90
12632;DHT22;6381;45.748;12.106;2023-05-10T09:04:34;14.90;99.90
12632;DHT22;6381;45.748;12.106;2023-05-10T09:07:06;14.90;99.90
12632;DHT22;6381;45.748;12.106;2023-05-10T09:09:37;15.00;99.90
12632;DHT22;6381;45.748;12.106;2023-05-10T09:12:08;15.10;99.90
12632;DHT22;6381;45.748;12.106;2023-05-10T09:14:40;15.10;99.90
12632;DHT22;6381;45.748;12.106;2023-05-10T09:17:10;14.80;99.90
12632;DHT22;6381;45.748;12.106;2023-05-10T09:19:40;15.10;99.90
12632;DHT22;6381;45.748;12.106;2023-05-10T09:22:12;15.00;99.90
12632;DHT22;6381;45.748;12.106;2023-05-10T09:24:43;15.40;99.90
12632;DHT22;6381;45.748;12.106;2023-05-10T09:27:13;15.40;99.90
12632;DHT22;6381;45.748;12.106;2023-05-10T09:29:43;15.60;99.90
12632;DHT22;6381;45.748;12.106;2023-05-10T09:32:15;15.20;99.90
12632;DHT22;6381;45.748;12.106;2023-05-10T09:34:44;15.20;99.90
12632;DHT22;6381;45.748;12.106;2023-05-10T09:37:16;15.00;99.90
12632;DHT22;6381;45.748;12.106;2023-05-10T09:39:46;15.10;99.90
12632;DHT22;6381;45.748;12.106;2023-05-10T09:42:18;15.10;99.90
12632;DHT22;6381;45.748;12.106;2023-05-10T09:44:48;15.10;99.90
12632;DHT22;6381;45.748;12.106;2023-05-10T09:47:18;14.70;99.90
12632;DHT22;6381;45.748;12.106;2023-05-10T09:49:50;15.10;99.90
12632;DHT22;6381;45.748;12.106;2023-05-10T09:52:21;15.20;99.90
12632;DHT22;6381;45.748;12.106;2023-05-10T09:54:53;15.30;99.90
12632;DHT22;6381;45.748;12.106;2023-05-10T09:57:24;15.10;99.90
12632;DHT22;6381;45.748;12.106;2023-05-10T09:59:54;15.20;99.90
12632;DHT22;6381;45.748;12.106;2023-05-10T10:02:29;14.90;99.90
12632;DHT22;6381;45.748;12.106;2023-05-10T10:05:01;14.90;99.90
12632;DHT22;6381;45.748;12.106;2023-05-10T10:07:33;14.60;99.90
12632;DHT22;6381;45.748;12.106;2023-05-10T10:10:04;14.70;99.90
12632;DHT22;6381;45.748;12.106;2023-05-10T10:12:40;15.00;99.90
12632;DHT22;6381;45.748;12.106;2023-05-10T10:15:11;14.90;99.90
12632;DHT22;6381;45.748;12.106;2023-05-10T10:17:43;14.70;99.90
12632;DHT22;6381;45.748;12.106;2023-05-10T10:20:14;14.80;99.90
12632;DHT22;6381;45.748;12.106;2023-05-10T10:22:47;14.60;99.90
12632;DHT22;6381;45.748;12.106;2023-05-10T10:25:17;14.60;99.90
12632;DHT22;6381;45.748;12.106;2023-05-10T10:28:08;14.70;99.90
12632;DHT22;6381;45.748;12.106;2023-05-10T10:30:43;14.70;99.90
12632;DHT22;6381;45.748;12.106;2023-05-10T10:33:33;14.80;99.90
12632;DHT22;6381;45.748;12.106;2023-05-10T10:36:06;15.00;99.90
12632;DHT22;6381;45.748;12.106;2023-05-10T10:41:34;14.90;99.90
12632;DHT22;6381;45.748;12.106;2023-05-10T10:44:25;14.90;99.90
12632;DHT22;6381;45.748;12.106;2023-05-10T10:47:25;14.70;99.90
12632;DHT22;6381;45.748;12.106;2023-05-10T10:50:05;14.90;99.90
12632;DHT22;6381;45.748;12.106;2023-05-10T10:52:36;15.00;99.90
12632;DHT22;6381;45.748;12.106;2023-05-10T10:55:10;15.20;99.90
12632;DHT22;6381;45.748;12.106;2023-05-10T10:57:47;14.80;99.90
12632;DHT22;6381;45.748;12.106;2023-05-10T11:00:28;15.00;99.90
12632;DHT22;6381;45.748;12.106;2023-05-10T11:03:03;15.00;99.90
12632;DHT22;6381;45.748;12.106;2023-05-10T11:05:41;14.90;99.90
12632;DHT22;6381;45.748;12.106;2023-05-10T11:08:14;15.00;99.90
12632;DHT22;6381;45.748;12.106;2023-05-10T11:11:03;14.90;99.90
12632;DHT22;6381;45.748;12.106;2023-05-10T11:13:38;14.90;99.90
12632;DHT22;6381;45.748;12.106;2023-05-10T11:16:17;14.80;99.90
12632;DHT22;6381;45.748;12.106;2023-05-10T11:19:01;15.10;99.90
12632;DHT22;6381;45.748;12.106;2023-05-10T11:21:33;15.00;99.90
12632;DHT22;6381;45.748;12.106;2023-05-10T11:24:14;14.90;99.90
12632;DHT22;6381;45.748;12.106;2023-05-10T11:26:46;14.90;99.90
12632;DHT22;6381;45.748;12.106;2023-05-10T11:29:16;15.00;99.90
12632;DHT22;6381;45.748;12.106;2023-05-10T11:31:47;15.20;99.90
12632;DHT22;6381;45.748;12.106;2023-05-10T11:34:25;15.20;99.90
12632;DHT22;6381;45.748;12.106;2023-05-10T11:36:55;15.20;99.90
12632;DHT22;6381;45.748;12.106;2023-05-10T11:39:29;14.90;99.90
12632;DHT22;6381;45.748;12.106;2023-05-10T11:42:01;15.00;99.90
12632;DHT22;6381;45.748;12.106;2023-05-10T11:44:31;15.20;99.90
12632;DHT22;6381;45.748;12.106;2023-05-10T11:47:01;15.00;99.90
12632;DHT22;6381;45.748;12.106;2023-05-10T11:49:31;15.20;99.90
12632;DHT22;6381;45.748;12.106;2023-05-10T11:52:04;15.30;99.90
12632;DHT22;6381;45.748;12.106;2023-05-10T11:54:35;15.40;99.90
12632;DHT22;6381;45.748;12.106;2023-05-10T11:57:06;15.50;99.90
12632;DHT22;6381;45.748;12.106;2023-05-10T11:59:37;15.40;99.90
12632;DHT22;6381;45.748;12.106;2023-05-10T12:02:10;15.40;99.90
12632;DHT22;6381;45.748;12.106;2023-05-10T12:04:41;15.20;99.90
12632;DHT22;6381;45.748;12.106;2023-05-10T12:07:11;15.10;99.90
12632;DHT22;6381;45.748;12.106;2023-05-10T12:09:43;15.20;99.90
12632;DHT22;6381;45.748;12.106;2023-05-10T12:12:17;15.30;99.90
12632;DHT22;6381;45.748;12.106;2023-05-10T12:14:50;15.40;99.90
12632;DHT22;6381;45.748;12.106;2023-05-10T12:17:20;15.30;99.90
12632;DHT22;6381;45.748;12.106;2023-05-10T12:19:50;15.40;99.90
12632;DHT22;6381;45.748;12.106;2023-05-10T12:22:21;15.30;99.90
12632;DHT22;6381;45.748;12.106;2023-05-10T12:24:51;15.30;99.90
12632;DHT22;6381;45.748;12.106;2023-05-10T12:27:22;15.50;99.90
12632;DHT22;6381;45.748;12.106;2023-05-10T12:29:52;15.30;99.90
12632;DHT22;6381;45.748;12.106;2023-05-10T12:32:37;15.50;99.90
12632;DHT22;6381;45.748;12.106;2023-05-10T12:35:08;15.20;99.90
12632;DHT22;6381;45.748;12.106;2023-05-10T12:37:38;15.40;99.90
12632;DHT22;6381;45.748;12.106;2023-05-10T12:40:10;15.40;99.90
12632;DHT22;6381;45.748;12.106;2023-05-10T12:42:42;15.40;99.90
12632;DHT22;6381;45.748;12.106;2023-05-10T12:45:13;15.30;99.90
12632;DHT22;6381;45.748;12.106;2023-05-10T12:47:43;15.10;99.90
12632;DHT22;6381;45.748;12.106;2023-05-10T12:50:13;15.10;99.90
12632;DHT22;6381;45.748;12.106;2023-05-10T12:52:43;15.00;99.90
12632;DHT22;6381;45.748;12.106;2023-05-10T12:55:13;15.10;99.90
12632;DHT22;6381;45.748;12.106;2023-05-10T12:57:45;15.20;99.90
12632;DHT22;6381;45.748;12.106;2023-05-10T13:00:17;15.20;99.90
12632;DHT22;6381;45.748;12.106;2023-05-10T13:02:46;15.20;99.90
12632;DHT22;6381;45.748;12.106;2023-05-10T13:05:17;15.30;99.90
12632;DHT22;6381;45.748;12.106;2023-05-10T13:07:47;15.30;99.90
12632;DHT22;6381;45.748;12.106;2023-05-10T13:10:17;15.30;99.90
12632;DHT22;6381;45.748;12.106;2023-05-10T13:12:49;15.20;99.90
12632;DHT22;6381;45.748;12.106;2023-05-10T13:15:19;15.20;99.90
12632;DHT22;6381;45.748;12.106;2023-05-10T13:17:48;15.20;99.90
12632;DHT22;6381;45.748;12.106;2023-05-10T13:20:18;15.20;99.90
12632;DHT22;6381;45.748;12.106;2023-05-10T13:22:48;15.20;99.90
12632;DHT22;6381;45.748;12.106;2023-05-10T13:25:19;15.20;99.90
12632;DHT22;6381;45.748;12.106;2023-05-10T13:27:50;15.20;99.90
12632;DHT22;6381;45.748;12.106;2023-05-10T13:30:20;15.20;99.90
12632;DHT22;6381;45.748;12.106;2023-05-10T13:32:51;15.20;99.90
12632;DHT22;6381;45.748;12.106;2023-05-10T13:35:21;15.20;99.90
12632;DHT22;6381;45.748;12.106;2023-05-10T13:37:53;15.00;99.90
12632;DHT22;6381;45.748;12.106;2023-05-10T13:40:25;14.90;99.90
12632;DHT22;6381;45.748;12.106;2023-05-10T13:42:57;15.10;99.90
12632;DHT22;6381;45.748;12.106;2023-05-10T13:45:26;15.00;99.90
12632;DHT22;6381;45.748;12.106;2023-05-10T13:47:56;14.80;99.90
12632;DHT22;6381;45.748;12.106;2023-05-10T13:50:26;15.10;99.90
12632;DHT22;6381;45.748;12.106;2023-05-10T13:52:56;15.00;99.90
12632;DHT22;6381;45.748;12.106;2023-05-10T13:55:26;15.00;99.90
12632;DHT22;6381;45.748;12.106;2023-05-10T13:57:59;14.90;99.90
12632;DHT22;6381;45.748;12.106;2023-05-10T14:00:33;15.00;99.90
12632;DHT22;6381;45.748;12.106;2023-05-10T14:03:05;14.90;99.90
12632;DHT22;6381;45.748;12.106;2023-05-10T14:05:56;14.90;99.90
12632;DHT22;6381;45.748;12.106;2023-05-10T14:08:25;14.80;99.90
12632;DHT22;6381;45.748;12.106;2023-05-10T14:10:57;14.60;99.90
12632;DHT22;6381;45.748;12.106;2023-05-10T14:13:28;14.60;99.90
12632;DHT22;6381;45.748;12.106;2023-05-10T14:15:59;14.60;99.90
12632;DHT22;6381;45.748;12.106;2023-05-10T14:18:29;14.60;99.90
12632;DHT22;6381;45.748;12.106;2023-05-10T14:20:59;14.50;99.90
12632;DHT22;6381;45.748;12.106;2023-05-10T14:23:29;14.50;99.90
12632;DHT22;6381;45.748;12.106;2023-05-10T14:25:59;14.40;99.90
12632;DHT22;6381;45.748;12.106;2023-05-10T14:28:30;14.40;99.90
12632;DHT22;6381;45.748;12.106;2023-05-10T14:31:00;14.50;99.90
12632;DHT22;6381;45.748;12.106;2023-05-10T14:33:31;14.30;99.90
12632;DHT22;6381;45.748;12.106;2023-05-10T14:36:00;14.30;99.90
12632;DHT22;6381;45.748;12.106;2023-05-10T14:38:31;14.30;99.90
12632;DHT22;6381;45.748;12.106;2023-05-10T14:41:05;14.50;99.90
12632;DHT22;6381;45.748;12.106;2023-05-10T14:43:40;14.50;99.90
12632;DHT22;6381;45.748;12.106;2023-05-10T14:46:10;14.50;99.90
12632;DHT22;6381;45.748;12.106;2023-05-10T14:48:41;14.50;99.90
12632;DHT22;6381;45.748;12.106;2023-05-10T14:51:11;14.50;99.90
12632;DHT22;6381;45.748;12.106;2023-05-10T14:53:40;14.30;99.90
12632;DHT22;6381;45.748;12.106;2023-05-10T14:56:10;14.50;99.90
12632;DHT22;6381;45.748;12.106;2023-05-10T14:58:41;14.30;99.90
12632;DHT22;6381;45.748;12.106;2023-05-10T15:01:11;14.40;99.90
12632;DHT22;6381;45.748;12.106;2023-05-10T15:03:42;14.60;99.90
12632;DHT22;6381;45.748;12.106;2023-05-10T15:06:14;14.40;99.90
12632;DHT22;6381;45.748;12.106;2023-05-10T15:08:44;14.50;99.90
12632;DHT22;6381;45.748;12.106;2023-05-10T15:11:14;14.50;99.90
12632;DHT22;6381;45.748;12.106;2023-05-10T15:13:45;14.60;99.90
12632;DHT22;6381;45.748;12.106;2023-05-10T15:16:15;14.40;99.90
12632;DHT22;6381;45.748;12.106;2023-05-10T15:18:45;14.40;99.90
12632;DHT22;6381;45.748;12.106;2023-05-10T15:21:15;14.50;99.90
12632;DHT22;6381;45.748;12.106;2023-05-10T15:23:45;14.40;99.90
12632;DHT22;6381;45.748;12.106;2023-05-10T15:26:14;14.50;99.90
12632;DHT22;6381;45.748;12.106;2023-05-10T15:28:46;14.20;99.90
12632;DHT22;6381;45.748;12.106;2023-05-10T15:31:17;14.40;99.90
12632;DHT22;6381;45.748;12.106;2023-05-10T15:33:48;14.20;99.90
12632;DHT22;6381;45.748;12.106;2023-05-10T15:36:17;14.20;99.90
12632;DHT22;6381;45.748;12.106;2023-05-10T15:38:48;14.30;99.90
12632;DHT22;6381;45.748;12.106;2023-05-10T15:41:18;14.50;99.90
12632;DHT22;6381;45.748;12.106;2023-05-10T15:43:50;14.30;99.90
12632;DHT22;6381;45.748;12.106;2023-05-10T15:46:20;14.30;99.90
12632;DHT22;6381;45.748;12.106;2023-05-10T15:48:50;14.30;99.90
12632;DHT22;6381;45.748;12.106;2023-05-10T15:51:20;14.20;99.90
12632;DHT22;6381;45.748;12.106;2023-05-10T15:53:50;14.20;99.90
12632;DHT22;6381;45.748;12.106;2023-05-10T15:56:33;14.30;99.90
12632;DHT22;6381;45.748;12.106;2023-05-10T15:59:05;14.30;99.90
12632;DHT22;6381;45.748;12.106;2023-05-10T16:01:35;14.50;99.90
12632;DHT22;6381;45.748;12.106;2023-05-10T16:04:05;14.30;99.90
12632;DHT22;6381;45.748;12.106;2023-05-10T16:06:36;14.10;99.90